sensor_id;sensor_type;location;lat;lon;timestamp;P1;durP1;ratioP1;P2;durP2;ratioP2
2464;SDS011;1244;54.326;10.074;2023-04-03T00:00:56;0.37;;;0.37;;
2464;SDS011;1244;54.326;10.074;2023-04-03T00:03:22;0.40;;;0.40;;
2464;SDS011;1244;54.326;10.074;2023-04-03T00:05:47;0.40;;;0.40;;
2464;SDS011;1244;54.326;10.074;2023-04-03T00:08:13;0.40;;;0.40;;
2464;SDS011;1244;54.326;10.074;2023-04-03T00:10:38;0.40;;;0.40;;
2464;SDS011;1244;54.326;10.074;2023-04-03T00:13:04;0.40;;;0.40;;
2464;SDS011;1244;54.326;10.074;2023-04-03T00:15:31;0.30;;;0.30;;
2464;SDS011;1244;54.326;10.074;2023-04-03T00:17:57;0.40;;;0.40;;
2464;SDS011;1244;54.326;10.074;2023-04-03T00:20:22;0.30;;;0.30;;
2464;SDS011;1244;54.326;10.074;2023-04-03T00:22:48;0.50;;;0.50;;
2464;SDS011;1244;54.326;10.074;2023-04-03T00:25:14;0.40;;;0.40;;
2464;SDS011;1244;54.326;10.074;2023-04-03T00:27:40;0.40;;;0.40;;
2464;SDS011;1244;54.326;10.074;2023-04-03T00:30:06;0.50;;;0.50;;
2464;SDS011;1244;54.326;10.074;2023-04-03T00:32:33;0.40;;;0.40;;
2464;SDS011;1244;54.326;10.074;2023-04-03T00:34:58;0.40;;;0.40;;
2464;SDS011;1244;54.326;10.074;2023-04-03T00:37:24;0.50;;;0.50;;
2464;SDS011;1244;54.326;10.074;2023-04-03T00:39:49;0.30;;;0.30;;
2464;SDS011;1244;54.326;10.074;2023-04-03T00:42:15;0.40;;;0.40;;
2464;SDS011;1244;54.326;10.074;2023-04-03T00:47:07;0.50;;;0.50;;
2464;SDS011;1244;54.326;10.074;2023-04-03T00:49:35;0.40;;;0.40;;
2464;SDS011;1244;54.326;10.074;2023-04-03T00:52:02;0.50;;;0.50;;
2464;SDS011;1244;54.326;10.074;2023-04-03T00:54:28;0.40;;;0.40;;
2464;SDS011;1244;54.326;10.074;2023-04-03T00:56:54;0.30;;;0.30;;
2464;SDS011;1244;54.326;10.074;2023-04-03T00:59:23;0.50;;;0.50;;
2464;SDS011;1244;54.326;10.074;2023-04-03T01:01:55;0.40;;;0.40;;
2464;SDS011;1244;54.326;10.074;2023-04-03T01:04:40;0.50;;;0.50;;
2464;SDS011;1244;54.326;10.074;2023-04-03T01:07:18;0.43;;;0.43;;
2464;SDS011;1244;54.326;10.074;2023-04-03T01:09:46;0.50;;;0.50;;
2464;SDS011;1244;54.326;10.074;2023-04-03T01:14:48;0.40;;;0.40;;
2464;SDS011;1244;54.326;10.074;2023-04-03T01:17:25;0.50;;;0.50;;
2464;SDS011;1244;54.326;10.074;2023-04-03T01:23:03;0.40;;;0.40;;
2464;SDS011;1244;54.326;10.074;2023-04-03T01:25:47;0.50;;;0.50;;
2464;SDS011;1244;54.326;10.074;2023-04-03T01:28:19;0.40;;;0.40;;
2464;SDS011;1244;54.326;10.074;2023-04-03T01:30:48;0.43;;;0.43;;
2464;SDS011;1244;54.326;10.074;2023-04-03T01:33:19;0.53;;;0.53;;
2464;SDS011;1244;54.326;10.074;2023-04-03T01:35:44;0.57;;;0.57;;
2464;SDS011;1244;54.326;10.074;2023-04-03T01:38:10;0.40;;;0.40;;
2464;SDS011;1244;54.326;10.074;2023-04-03T01:40:35;0.50;;;0.50;;
2464;SDS011;1244;54.326;10.074;2023-04-03T01:43:01;0.40;;;0.40;;
2464;SDS011;1244;54.326;10.074;2023-04-03T01:45:27;0.57;;;0.57;;
2464;SDS011;1244;54.326;10.074;2023-04-03T01:47:52;0.50;;;0.50;;
2464;SDS011;1244;54.326;10.074;2023-04-03T01:50:18;0.50;;;0.50;;
2464;SDS011;1244;54.326;10.074;2023-04-03T01:52:43;0.50;;;0.50;;
2464;SDS011;1244;54.326;10.074;2023-04-03T01:55:09;0.57;;;0.57;;
2464;SDS011;1244;54.326;10.074;2023-04-03T01:57:34;0.60;;;0.60;;
2464;SDS011;1244;54.326;10.074;2023-04-03T02:00:00;0.60;;;0.60;;
2464;SDS011;1244;54.326;10.074;2023-04-03T02:02:25;0.60;;;0.60;;
2464;SDS011;1244;54.326;10.074;2023-04-03T02:04:51;0.60;;;0.60;;
2464;SDS011;1244;54.326;10.074;2023-04-03T02:07:16;0.40;;;0.40;;
2464;SDS011;1244;54.326;10.074;2023-04-03T02:09:42;0.40;;;0.40;;
2464;SDS011;1244;54.326;10.074;2023-04-03T02:12:07;0.50;;;0.50;;
2464;SDS011;1244;54.326;10.074;2023-04-03T02:14:33;0.50;;;0.50;;
2464;SDS011;1244;54.326;10.074;2023-04-03T02:17:00;0.40;;;0.40;;
2464;SDS011;1244;54.326;10.074;2023-04-03T02:19:29;0.50;;;0.50;;
2464;SDS011;1244;54.326;10.074;2023-04-03T02:21:55;0.50;;;0.50;;
2464;SDS011;1244;54.326;10.074;2023-04-03T02:24:24;0.60;;;0.60;;
2464;SDS011;1244;54.326;10.074;2023-04-03T02:26:52;0.50;;;0.50;;
2464;SDS011;1244;54.326;10.074;2023-04-03T02:29:18;0.60;;;0.60;;
2464;SDS011;1244;54.326;10.074;2023-04-03T02:31:50;0.70;;;0.70;;
2464;SDS011;1244;54.326;10.074;2023-04-03T02:34:21;0.70;;;0.70;;
2464;SDS011;1244;54.326;10.074;2023-04-03T02:36:49;0.63;;;0.63;;
2464;SDS011;1244;54.326;10.074;2023-04-03T02:39:17;0.60;;;0.60;;
2464;SDS011;1244;54.326;10.074;2023-04-03T02:42:07;0.50;;;0.50;;
2464;SDS011;1244;54.326;10.074;2023-04-03T02:44:36;0.50;;;0.50;;
2464;SDS011;1244;54.326;10.074;2023-04-03T02:47:01;0.60;;;0.60;;
2464;SDS011;1244;54.326;10.074;2023-04-03T02:49:36;0.50;;;0.50;;
2464;SDS011;1244;54.326;10.074;2023-04-03T02:52:02;0.50;;;0.50;;
2464;SDS011;1244;54.326;10.074;2023-04-03T02:55:14;0.50;;;0.50;;
2464;SDS011;1244;54.326;10.074;2023-04-03T03:01:46;0.33;;;0.33;;
2464;SDS011;1244;54.326;10.074;2023-04-03T03:04:51;0.60;;;0.60;;
2464;SDS011;1244;54.326;10.074;2023-04-03T03:07:16;0.70;;;0.70;;
2464;SDS011;1244;54.326;10.074;2023-04-03T03:09:42;0.60;;;0.60;;
2464;SDS011;1244;54.326;10.074;2023-04-03T03:12:10;0.50;;;0.50;;
2464;SDS011;1244;54.326;10.074;2023-04-03T03:14:35;0.50;;;0.50;;
2464;SDS011;1244;54.326;10.074;2023-04-03T03:31:01;0.40;;;0.40;;
2464;SDS011;1244;54.326;10.074;2023-04-03T03:33:28;0.40;;;0.40;;
2464;SDS011;1244;54.326;10.074;2023-04-03T03:36:11;0.60;;;0.60;;
2464;SDS011;1244;54.326;10.074;2023-04-03T03:38:41;0.70;;;0.70;;
2464;SDS011;1244;54.326;10.074;2023-04-03T03:41:06;0.50;;;0.50;;
2464;SDS011;1244;54.326;10.074;2023-04-03T03:44:11;0.60;;;0.60;;
2464;SDS011;1244;54.326;10.074;2023-04-03T03:50:00;0.63;;;0.63;;
2464;SDS011;1244;54.326;10.074;2023-04-03T03:52:26;0.60;;;0.60;;
2464;SDS011;1244;54.326;10.074;2023-04-03T03:54:56;0.50;;;0.50;;
2464;SDS011;1244;54.326;10.074;2023-04-03T03:57:27;0.50;;;0.50;;
2464;SDS011;1244;54.326;10.074;2023-04-03T03:59:53;0.50;;;0.50;;
2464;SDS011;1244;54.326;10.074;2023-04-03T04:02:19;0.50;;;0.50;;
2464;SDS011;1244;54.326;10.074;2023-04-03T04:04:53;0.60;;;0.60;;
2464;SDS011;1244;54.326;10.074;2023-04-03T04:07:39;0.60;;;0.60;;
2464;SDS011;1244;54.326;10.074;2023-04-03T04:10:51;0.63;;;0.63;;
2464;SDS011;1244;54.326;10.074;2023-04-03T04:13:55;0.60;;;0.60;;
2464;SDS011;1244;54.326;10.074;2023-04-03T04:16:49;0.60;;;0.60;;
2464;SDS011;1244;54.326;10.074;2023-04-03T04:19:49;0.53;;;0.53;;
2464;SDS011;1244;54.326;10.074;2023-04-03T04:22:23;0.60;;;0.60;;
2464;SDS011;1244;54.326;10.074;2023-04-03T04:24:55;0.70;;;0.70;;
2464;SDS011;1244;54.326;10.074;2023-04-03T04:27:25;0.60;;;0.60;;
2464;SDS011;1244;54.326;10.074;2023-04-03T04:29:54;0.70;;;0.70;;
2464;SDS011;1244;54.326;10.074;2023-04-03T04:32:32;0.50;;;0.50;;
2464;SDS011;1244;54.326;10.074;2023-04-03T04:34:57;0.60;;;0.60;;
2464;SDS011;1244;54.326;10.074;2023-04-03T04:37:23;0.70;;;0.70;;
2464;SDS011;1244;54.326;10.074;2023-04-03T04:39:51;0.70;;;0.70;;
2464;SDS011;1244;54.326;10.074;2023-04-03T04:42:20;0.50;;;0.50;;
2464;SDS011;1244;54.326;10.074;2023-04-03T04:44:45;0.60;;;0.60;;
2464;SDS011;1244;54.326;10.074;2023-04-03T04:47:11;0.60;;;0.60;;
2464;SDS011;1244;54.326;10.074;2023-04-03T04:49:57;0.53;;;0.53;;
2464;SDS011;1244;54.326;10.074;2023-04-03T04:52:35;0.57;;;0.57;;
2464;SDS011;1244;54.326;10.074;2023-04-03T04:55:03;0.60;;;0.60;;
2464;SDS011;1244;54.326;10.074;2023-04-03T04:57:29;0.60;;;0.60;;
2464;SDS011;1244;54.326;10.074;2023-04-03T04:59:55;0.50;;;0.50;;
2464;SDS011;1244;54.326;10.074;2023-04-03T05:02:21;0.50;;;0.50;;
2464;SDS011;1244;54.326;10.074;2023-04-03T05:04:58;0.50;;;0.50;;
2464;SDS011;1244;54.326;10.074;2023-04-03T05:10:33;0.70;;;0.70;;
2464;SDS011;1244;54.326;10.074;2023-04-03T05:13:08;0.67;;;0.67;;
2464;SDS011;1244;54.326;10.074;2023-04-03T05:15:34;0.60;;;0.60;;
2464;SDS011;1244;54.326;10.074;2023-04-03T05:18:00;0.60;;;0.60;;
2464;SDS011;1244;54.326;10.074;2023-04-03T05:20:26;0.60;;;0.60;;
2464;SDS011;1244;54.326;10.074;2023-04-03T05:22:51;0.60;;;0.60;;
2464;SDS011;1244;54.326;10.074;2023-04-03T05:25:17;0.50;;;0.50;;
2464;SDS011;1244;54.326;10.074;2023-04-03T05:27:43;0.53;;;0.53;;
2464;SDS011;1244;54.326;10.074;2023-04-03T05:30:45;0.50;;;0.50;;
2464;SDS011;1244;54.326;10.074;2023-04-03T05:33:21;0.50;;;0.50;;
2464;SDS011;1244;54.326;10.074;2023-04-03T05:36:13;0.50;;;0.50;;
2464;SDS011;1244;54.326;10.074;2023-04-03T05:38:39;0.60;;;0.60;;
2464;SDS011;1244;54.326;10.074;2023-04-03T05:44:05;0.57;;;0.57;;
2464;SDS011;1244;54.326;10.074;2023-04-03T05:46:30;0.50;;;0.50;;
2464;SDS011;1244;54.326;10.074;2023-04-03T05:48:56;0.40;;;0.40;;
2464;SDS011;1244;54.326;10.074;2023-04-03T05:51:33;0.50;;;0.50;;
2464;SDS011;1244;54.326;10.074;2023-04-03T05:54:13;0.50;;;0.50;;
2464;SDS011;1244;54.326;10.074;2023-04-03T05:56:43;0.60;;;0.60;;
2464;SDS011;1244;54.326;10.074;2023-04-03T05:59:09;0.60;;;0.60;;
2464;SDS011;1244;54.326;10.074;2023-04-03T06:01:35;0.50;;;0.50;;
2464;SDS011;1244;54.326;10.074;2023-04-03T06:04:00;0.50;;;0.50;;
2464;SDS011;1244;54.326;10.074;2023-04-03T06:06:36;0.40;;;0.40;;
2464;SDS011;1244;54.326;10.074;2023-04-03T06:09:13;0.60;;;0.60;;
2464;SDS011;1244;54.326;10.074;2023-04-03T06:11:40;0.60;;;0.60;;
2464;SDS011;1244;54.326;10.074;2023-04-03T06:14:06;0.50;;;0.50;;
2464;SDS011;1244;54.326;10.074;2023-04-03T06:16:33;0.50;;;0.50;;
2464;SDS011;1244;54.326;10.074;2023-04-03T06:18:58;0.47;;;0.47;;
2464;SDS011;1244;54.326;10.074;2023-04-03T06:21:24;0.43;;;0.43;;
2464;SDS011;1244;54.326;10.074;2023-04-03T06:23:50;0.50;;;0.50;;
2464;SDS011;1244;54.326;10.074;2023-04-03T06:26:16;0.50;;;0.50;;
2464;SDS011;1244;54.326;10.074;2023-04-03T06:28:42;0.40;;;0.40;;
2464;SDS011;1244;54.326;10.074;2023-04-03T06:31:07;0.50;;;0.50;;
2464;SDS011;1244;54.326;10.074;2023-04-03T06:33:33;0.40;;;0.40;;
2464;SDS011;1244;54.326;10.074;2023-04-03T06:35:59;0.40;;;0.40;;
2464;SDS011;1244;54.326;10.074;2023-04-03T06:38:28;0.33;;;0.33;;
2464;SDS011;1244;54.326;10.074;2023-04-03T06:40:53;0.40;;;0.40;;
2464;SDS011;1244;54.326;10.074;2023-04-03T06:43:21;0.40;;;0.40;;
2464;SDS011;1244;54.326;10.074;2023-04-03T06:45:46;0.40;;;0.40;;
2464;SDS011;1244;54.326;10.074;2023-04-03T06:48:12;0.40;;;0.40;;
2464;SDS011;1244;54.326;10.074;2023-04-03T06:50:38;0.40;;;0.40;;
2464;SDS011;1244;54.326;10.074;2023-04-03T06:53:04;0.40;;;0.40;;
2464;SDS011;1244;54.326;10.074;2023-04-03T06:55:30;0.40;;;0.40;;
2464;SDS011;1244;54.326;10.074;2023-04-03T06:57:56;0.30;;;0.30;;
2464;SDS011;1244;54.326;10.074;2023-04-03T07:00:22;0.40;;;0.40;;
2464;SDS011;1244;54.326;10.074;2023-04-03T07:02:48;0.40;;;0.40;;
2464;SDS011;1244;54.326;10.074;2023-04-03T07:05:13;0.40;;;0.40;;
2464;SDS011;1244;54.326;10.074;2023-04-03T07:07:39;0.40;;;0.40;;
2464;SDS011;1244;54.326;10.074;2023-04-03T07:10:06;0.30;;;0.30;;
2464;SDS011;1244;54.326;10.074;2023-04-03T07:12:32;0.50;;;0.50;;
2464;SDS011;1244;54.326;10.074;2023-04-03T07:14:57;0.40;;;0.40;;
2464;SDS011;1244;54.326;10.074;2023-04-03T07:17:23;0.40;;;0.40;;
2464;SDS011;1244;54.326;10.074;2023-04-03T07:19:50;0.40;;;0.40;;
2464;SDS011;1244;54.326;10.074;2023-04-03T07:22:15;0.40;;;0.40;;
2464;SDS011;1244;54.326;10.074;2023-04-03T07:24:41;0.30;;;0.30;;
2464;SDS011;1244;54.326;10.074;2023-04-03T07:27:07;0.40;;;0.40;;
2464;SDS011;1244;54.326;10.074;2023-04-03T07:29:33;0.30;;;0.30;;
2464;SDS011;1244;54.326;10.074;2023-04-03T07:32:00;0.40;;;0.40;;
2464;SDS011;1244;54.326;10.074;2023-04-03T07:34:26;0.30;;;0.30;;
2464;SDS011;1244;54.326;10.074;2023-04-03T07:36:52;0.40;;;0.40;;
2464;SDS011;1244;54.326;10.074;2023-04-03T07:39:17;0.30;;;0.30;;
2464;SDS011;1244;54.326;10.074;2023-04-03T07:41:43;0.40;;;0.40;;
2464;SDS011;1244;54.326;10.074;2023-04-03T07:44:09;0.40;;;0.40;;
2464;SDS011;1244;54.326;10.074;2023-04-03T07:46:35;0.30;;;0.30;;
2464;SDS011;1244;54.326;10.074;2023-04-03T07:49:01;0.30;;;0.30;;
2464;SDS011;1244;54.326;10.074;2023-04-03T07:51:26;0.30;;;0.30;;
2464;SDS011;1244;54.326;10.074;2023-04-03T07:53:53;0.40;;;0.40;;
2464;SDS011;1244;54.326;10.074;2023-04-03T07:56:19;0.30;;;0.30;;
2464;SDS011;1244;54.326;10.074;2023-04-03T08:34:21;0.20;;;0.20;;
2464;SDS011;1244;54.326;10.074;2023-04-03T08:36:46;0.20;;;0.20;;
2464;SDS011;1244;54.326;10.074;2023-04-03T08:39:12;0.20;;;0.20;;
2464;SDS011;1244;54.326;10.074;2023-04-03T08:41:41;0.20;;;0.20;;
2464;SDS011;1244;54.326;10.074;2023-04-03T08:44:12;0.20;;;0.20;;
2464;SDS011;1244;54.326;10.074;2023-04-03T08:49:36;0.20;;;0.20;;
2464;SDS011;1244;54.326;10.074;2023-04-03T08:52:10;0.17;;;0.17;;
2464;SDS011;1244;54.326;10.074;2023-04-03T08:54:41;0.17;;;0.17;;
2464;SDS011;1244;54.326;10.074;2023-04-03T08:57:16;0.20;;;0.20;;
2464;SDS011;1244;54.326;10.074;2023-04-03T08:59:45;0.10;;;0.10;;
2464;SDS011;1244;54.326;10.074;2023-04-03T09:02:25;0.10;;;0.10;;
2464;SDS011;1244;54.326;10.074;2023-04-03T09:04:58;0.10;;;0.10;;
2464;SDS011;1244;54.326;10.074;2023-04-03T09:07:36;0.10;;;0.10;;
2464;SDS011;1244;54.326;10.074;2023-04-03T09:10:08;0.10;;;0.10;;
2464;SDS011;1244;54.326;10.074;2023-04-03T09:12:38;0.10;;;0.10;;
2464;SDS011;1244;54.326;10.074;2023-04-03T09:20:13;0.13;;;0.13;;
2464;SDS011;1244;54.326;10.074;2023-04-03T09:22:52;0.13;;;0.13;;
2464;SDS011;1244;54.326;10.074;2023-04-03T09:25:32;0.10;;;0.10;;
2464;SDS011;1244;54.326;10.074;2023-04-03T09:28:02;0.10;;;0.10;;
2464;SDS011;1244;54.326;10.074;2023-04-03T09:30:34;0.10;;;0.10;;
2464;SDS011;1244;54.326;10.074;2023-04-03T09:33:00;0.10;;;0.10;;
2464;SDS011;1244;54.326;10.074;2023-04-03T09:37:59;0.07;;;0.07;;
2464;SDS011;1244;54.326;10.074;2023-04-03T09:42:54;0.10;;;0.10;;
2464;SDS011;1244;54.326;10.074;2023-04-03T09:45:32;0.10;;;0.10;;
2464;SDS011;1244;54.326;10.074;2023-04-03T09:58:44;0.10;;;0.10;;
2464;SDS011;1244;54.326;10.074;2023-04-03T10:01:27;0.10;;;0.10;;
2464;SDS011;1244;54.326;10.074;2023-04-03T10:04:07;0.10;;;0.10;;
2464;SDS011;1244;54.326;10.074;2023-04-03T10:06:39;0.10;;;0.10;;
2464;SDS011;1244;54.326;10.074;2023-04-03T10:14:34;0.00;;;0.00;;
2464;SDS011;1244;54.326;10.074;2023-04-03T10:20:21;0.00;;;0.00;;
2464;SDS011;1244;54.326;10.074;2023-04-03T10:26:02;0.00;;;0.00;;
2464;SDS011;1244;54.326;10.074;2023-04-03T10:28:48;0.00;;;0.00;;
2464;SDS011;1244;54.326;10.074;2023-04-03T10:31:22;0.00;;;0.00;;
2464;SDS011;1244;54.326;10.074;2023-04-03T10:36:28;0.00;;;0.00;;
2464;SDS011;1244;54.326;10.074;2023-04-03T10:39:05;0.00;;;0.00;;
2464;SDS011;1244;54.326;10.074;2023-04-03T10:41:42;0.00;;;0.00;;
2464;SDS011;1244;54.326;10.074;2023-04-03T10:44:15;0.00;;;0.00;;
2464;SDS011;1244;54.326;10.074;2023-04-03T10:47:26;0.00;;;0.00;;
2464;SDS011;1244;54.326;10.074;2023-04-03T10:54:56;0.00;;;0.00;;
2464;SDS011;1244;54.326;10.074;2023-04-03T10:57:29;0.00;;;0.00;;
2464;SDS011;1244;54.326;10.074;2023-04-03T11:04:55;0.00;;;0.00;;
2464;SDS011;1244;54.326;10.074;2023-04-03T11:07:27;0.00;;;0.00;;
2464;SDS011;1244;54.326;10.074;2023-04-03T11:10:15;0.00;;;0.00;;
2464;SDS011;1244;54.326;10.074;2023-04-03T11:12:46;0.00;;;0.00;;
2464;SDS011;1244;54.326;10.074;2023-04-03T11:15:15;0.00;;;0.00;;
2464;SDS011;1244;54.326;10.074;2023-04-03T11:17:46;0.00;;;0.00;;
2464;SDS011;1244;54.326;10.074;2023-04-03T11:22:50;0.00;;;0.00;;
2464;SDS011;1244;54.326;10.074;2023-04-03T11:25:20;0.00;;;0.00;;
2464;SDS011;1244;54.326;10.074;2023-04-03T11:32:59;0.00;;;0.00;;
2464;SDS011;1244;54.326;10.074;2023-04-03T11:35:34;0.00;;;0.00;;
2464;SDS011;1244;54.326;10.074;2023-04-03T11:38:00;0.00;;;0.00;;
2464;SDS011;1244;54.326;10.074;2023-04-03T11:40:34;0.00;;;0.00;;
2464;SDS011;1244;54.326;10.074;2023-04-03T11:45:31;0.00;;;0.00;;
2464;SDS011;1244;54.326;10.074;2023-04-03T11:48:41;0.00;;;0.00;;
2464;SDS011;1244;54.326;10.074;2023-04-03T11:50:47;0.00;;;0.00;;
2464;SDS011;1244;54.326;10.074;2023-04-03T12:16:21;0.00;;;0.00;;
2464;SDS011;1244;54.326;10.074;2023-04-03T12:26:36;0.00;;;0.00;;
2464;SDS011;1244;54.326;10.074;2023-04-03T12:29:23;0.00;;;0.00;;
2464;SDS011;1244;54.326;10.074;2023-04-03T12:34:43;0.00;;;0.00;;
2464;SDS011;1244;54.326;10.074;2023-04-03T12:37:40;0.00;;;0.00;;
2464;SDS011;1244;54.326;10.074;2023-04-03T12:46:26;0.00;;;0.00;;
2464;SDS011;1244;54.326;10.074;2023-04-03T12:48:55;0.00;;;0.00;;
2464;SDS011;1244;54.326;10.074;2023-04-03T12:53:57;0.00;;;0.00;;
2464;SDS011;1244;54.326;10.074;2023-04-03T12:56:26;0.00;;;0.00;;
2464;SDS011;1244;54.326;10.074;2023-04-03T12:58:54;0.00;;;0.00;;
2464;SDS011;1244;54.326;10.074;2023-04-03T13:01:37;0.00;;;0.00;;
2464;SDS011;1244;54.326;10.074;2023-04-03T13:04:02;0.00;;;0.00;;
2464;SDS011;1244;54.326;10.074;2023-04-03T13:06:30;0.00;;;0.00;;
2464;SDS011;1244;54.326;10.074;2023-04-03T13:09:02;0.00;;;0.00;;
2464;SDS011;1244;54.326;10.074;2023-04-03T13:11:38;0.00;;;0.00;;
2464;SDS011;1244;54.326;10.074;2023-04-03T13:14:14;0.00;;;0.00;;
2464;SDS011;1244;54.326;10.074;2023-04-03T13:16:58;0.00;;;0.00;;
2464;SDS011;1244;54.326;10.074;2023-04-03T13:19:28;0.00;;;0.00;;
2464;SDS011;1244;54.326;10.074;2023-04-03T13:22:37;0.00;;;0.00;;
2464;SDS011;1244;54.326;10.074;2023-04-03T13:24:51;0.00;;;0.00;;
2464;SDS011;1244;54.326;10.074;2023-04-03T13:27:18;0.00;;;0.00;;
2464;SDS011;1244;54.326;10.074;2023-04-03T13:29:48;0.00;;;0.00;;
2464;SDS011;1244;54.326;10.074;2023-04-03T13:32:20;0.00;;;0.00;;
2464;SDS011;1244;54.326;10.074;2023-04-03T13:34:46;0.00;;;0.00;;
2464;SDS011;1244;54.326;10.074;2023-04-03T13:42:34;0.00;;;0.00;;
2464;SDS011;1244;54.326;10.074;2023-04-03T13:45:21;0.00;;;0.00;;
2464;SDS011;1244;54.326;10.074;2023-04-03T13:47:49;0.00;;;0.00;;
2464;SDS011;1244;54.326;10.074;2023-04-03T13:50:18;0.00;;;0.00;;
2464;SDS011;1244;54.326;10.074;2023-04-03T13:53:03;0.00;;;0.00;;
2464;SDS011;1244;54.326;10.074;2023-04-03T13:55:34;0.00;;;0.00;;
2464;SDS011;1244;54.326;10.074;2023-04-03T13:58:03;0.00;;;0.00;;
2464;SDS011;1244;54.326;10.074;2023-04-03T14:00:53;0.00;;;0.00;;
2464;SDS011;1244;54.326;10.074;2023-04-03T14:03:25;0.00;;;0.00;;
2464;SDS011;1244;54.326;10.074;2023-04-03T14:05:52;0.00;;;0.00;;
2464;SDS011;1244;54.326;10.074;2023-04-03T14:08:18;0.00;;;0.00;;
2464;SDS011;1244;54.326;10.074;2023-04-03T14:10:44;0.00;;;0.00;;
2464;SDS011;1244;54.326;10.074;2023-04-03T14:13:13;0.00;;;0.00;;
2464;SDS011;1244;54.326;10.074;2023-04-03T14:15:39;0.00;;;0.00;;
2464;SDS011;1244;54.326;10.074;2023-04-03T14:18:05;0.00;;;0.00;;
2464;SDS011;1244;54.326;10.074;2023-04-03T14:20:31;0.00;;;0.00;;
2464;SDS011;1244;54.326;10.074;2023-04-03T14:22:57;0.00;;;0.00;;
2464;SDS011;1244;54.326;10.074;2023-04-03T14:25:23;0.00;;;0.00;;
2464;SDS011;1244;54.326;10.074;2023-04-03T14:27:53;0.00;;;0.00;;
2464;SDS011;1244;54.326;10.074;2023-04-03T14:30:22;0.00;;;0.00;;
2464;SDS011;1244;54.326;10.074;2023-04-03T14:32:48;0.00;;;0.00;;
2464;SDS011;1244;54.326;10.074;2023-04-03T14:35:15;0.00;;;0.00;;
2464;SDS011;1244;54.326;10.074;2023-04-03T14:37:41;0.00;;;0.00;;
2464;SDS011;1244;54.326;10.074;2023-04-03T14:40:08;0.00;;;0.00;;
2464;SDS011;1244;54.326;10.074;2023-04-03T14:42:35;0.00;;;0.00;;
2464;SDS011;1244;54.326;10.074;2023-04-03T14:45:02;0.00;;;0.00;;
2464;SDS011;1244;54.326;10.074;2023-04-03T14:47:29;0.00;;;0.00;;
2464;SDS011;1244;54.326;10.074;2023-04-03T14:49:55;0.00;;;0.00;;
2464;SDS011;1244;54.326;10.074;2023-04-03T14:52:23;0.00;;;0.00;;
2464;SDS011;1244;54.326;10.074;2023-04-03T14:54:49;0.00;;;0.00;;
2464;SDS011;1244;54.326;10.074;2023-04-03T14:57:16;0.00;;;0.00;;
2464;SDS011;1244;54.326;10.074;2023-04-03T14:59:42;0.00;;;0.00;;
2464;SDS011;1244;54.326;10.074;2023-04-03T15:02:28;0.00;;;0.00;;
2464;SDS011;1244;54.326;10.074;2023-04-03T15:04:54;0.00;;;0.00;;
2464;SDS011;1244;54.326;10.074;2023-04-03T15:07:21;0.00;;;0.00;;
2464;SDS011;1244;54.326;10.074;2023-04-03T15:09:49;0.00;;;0.00;;
2464;SDS011;1244;54.326;10.074;2023-04-03T15:12:14;0.00;;;0.00;;
2464;SDS011;1244;54.326;10.074;2023-04-03T15:14:40;0.00;;;0.00;;
2464;SDS011;1244;54.326;10.074;2023-04-03T15:17:06;0.00;;;0.00;;
2464;SDS011;1244;54.326;10.074;2023-04-03T15:19:41;0.03;;;0.03;;
2464;SDS011;1244;54.326;10.074;2023-04-03T15:22:09;0.10;;;0.10;;
2464;SDS011;1244;54.326;10.074;2023-04-03T15:24:42;0.10;;;0.10;;
2464;SDS011;1244;54.326;10.074;2023-04-03T15:27:08;0.10;;;0.10;;
2464;SDS011;1244;54.326;10.074;2023-04-03T15:29:35;0.10;;;0.10;;
2464;SDS011;1244;54.326;10.074;2023-04-03T15:32:00;0.10;;;0.10;;
2464;SDS011;1244;54.326;10.074;2023-04-03T15:34:27;0.10;;;0.10;;
2464;SDS011;1244;54.326;10.074;2023-04-03T15:36:53;0.10;;;0.10;;
2464;SDS011;1244;54.326;10.074;2023-04-03T15:39:18;0.10;;;0.10;;
2464;SDS011;1244;54.326;10.074;2023-04-03T15:41:45;0.10;;;0.10;;
2464;SDS011;1244;54.326;10.074;2023-04-03T15:44:11;0.10;;;0.10;;
2464;SDS011;1244;54.326;10.074;2023-04-03T15:46:37;0.10;;;0.10;;
2464;SDS011;1244;54.326;10.074;2023-04-03T15:49:03;0.10;;;0.10;;
2464;SDS011;1244;54.326;10.074;2023-04-03T15:51:30;0.10;;;0.10;;
2464;SDS011;1244;54.326;10.074;2023-04-03T15:53:56;0.10;;;0.10;;
2464;SDS011;1244;54.326;10.074;2023-04-03T15:56:21;0.10;;;0.10;;
2464;SDS011;1244;54.326;10.074;2023-04-03T15:58:47;0.10;;;0.10;;
2464;SDS011;1244;54.326;10.074;2023-04-03T16:01:13;0.10;;;0.10;;
2464;SDS011;1244;54.326;10.074;2023-04-03T16:03:39;0.10;;;0.10;;
2464;SDS011;1244;54.326;10.074;2023-04-03T16:06:10;0.10;;;0.10;;
2464;SDS011;1244;54.326;10.074;2023-04-03T16:08:36;0.10;;;0.10;;
2464;SDS011;1244;54.326;10.074;2023-04-03T16:11:02;0.10;;;0.10;;
2464;SDS011;1244;54.326;10.074;2023-04-03T16:13:28;0.10;;;0.10;;
2464;SDS011;1244;54.326;10.074;2023-04-03T16:15:54;0.13;;;0.13;;
2464;SDS011;1244;54.326;10.074;2023-04-03T16:18:19;0.20;;;0.20;;
2464;SDS011;1244;54.326;10.074;2023-04-03T16:20:45;0.10;;;0.10;;
2464;SDS011;1244;54.326;10.074;2023-04-03T16:23:11;0.17;;;0.17;;
2464;SDS011;1244;54.326;10.074;2023-04-03T16:25:37;0.10;;;0.10;;
2464;SDS011;1244;54.326;10.074;2023-04-03T16:28:02;0.10;;;0.10;;
2464;SDS011;1244;54.326;10.074;2023-04-03T16:30:28;0.20;;;0.20;;
2464;SDS011;1244;54.326;10.074;2023-04-03T16:32:54;0.10;;;0.10;;
2464;SDS011;1244;54.326;10.074;2023-04-03T16:35:20;0.20;;;0.20;;
2464;SDS011;1244;54.326;10.074;2023-04-03T16:37:46;0.20;;;0.20;;
2464;SDS011;1244;54.326;10.074;2023-04-03T16:40:11;0.10;;;0.10;;
2464;SDS011;1244;54.326;10.074;2023-04-03T16:42:37;0.17;;;0.17;;
2464;SDS011;1244;54.326;10.074;2023-04-03T16:45:03;0.10;;;0.10;;
2464;SDS011;1244;54.326;10.074;2023-04-03T16:47:30;0.10;;;0.10;;
2464;SDS011;1244;54.326;10.074;2023-04-03T16:49:56;0.20;;;0.20;;
2464;SDS011;1244;54.326;10.074;2023-04-03T16:52:21;0.20;;;0.20;;
2464;SDS011;1244;54.326;10.074;2023-04-03T16:54:47;0.20;;;0.20;;
2464;SDS011;1244;54.326;10.074;2023-04-03T16:57:12;0.20;;;0.20;;
2464;SDS011;1244;54.326;10.074;2023-04-03T16:59:38;0.10;;;0.10;;
2464;SDS011;1244;54.326;10.074;2023-04-03T17:02:03;0.20;;;0.20;;
2464;SDS011;1244;54.326;10.074;2023-04-03T17:04:29;0.10;;;0.10;;
2464;SDS011;1244;54.326;10.074;2023-04-03T17:06:55;0.10;;;0.10;;
2464;SDS011;1244;54.326;10.074;2023-04-03T17:09:20;0.13;;;0.13;;
2464;SDS011;1244;54.326;10.074;2023-04-03T17:11:47;0.10;;;0.10;;
2464;SDS011;1244;54.326;10.074;2023-04-03T17:14:13;0.20;;;0.20;;
2464;SDS011;1244;54.326;10.074;2023-04-03T17:16:39;0.13;;;0.13;;
2464;SDS011;1244;54.326;10.074;2023-04-03T17:19:04;0.10;;;0.10;;
2464;SDS011;1244;54.326;10.074;2023-04-03T17:21:31;0.17;;;0.17;;
2464;SDS011;1244;54.326;10.074;2023-04-03T17:24:02;0.20;;;0.20;;
2464;SDS011;1244;54.326;10.074;2023-04-03T17:26:32;0.20;;;0.20;;
2464;SDS011;1244;54.326;10.074;2023-04-03T17:28:57;0.13;;;0.13;;
2464;SDS011;1244;54.326;10.074;2023-04-03T17:31:23;0.20;;;0.20;;
2464;SDS011;1244;54.326;10.074;2023-04-03T17:33:49;0.20;;;0.20;;
2464;SDS011;1244;54.326;10.074;2023-04-03T17:36:14;0.20;;;0.20;;
2464;SDS011;1244;54.326;10.074;2023-04-03T17:38:40;0.13;;;0.13;;
2464;SDS011;1244;54.326;10.074;2023-04-03T17:41:07;0.20;;;0.20;;
2464;SDS011;1244;54.326;10.074;2023-04-03T17:43:33;0.20;;;0.20;;
2464;SDS011;1244;54.326;10.074;2023-04-03T17:46:00;0.20;;;0.20;;
2464;SDS011;1244;54.326;10.074;2023-04-03T17:48:28;0.20;;;0.20;;
2464;SDS011;1244;54.326;10.074;2023-04-03T17:50:54;0.20;;;0.20;;
2464;SDS011;1244;54.326;10.074;2023-04-03T17:53:20;0.20;;;0.20;;
2464;SDS011;1244;54.326;10.074;2023-04-03T17:55:45;0.20;;;0.20;;
2464;SDS011;1244;54.326;10.074;2023-04-03T17:58:11;0.20;;;0.20;;
2464;SDS011;1244;54.326;10.074;2023-04-03T18:00:36;0.20;;;0.20;;
2464;SDS011;1244;54.326;10.074;2023-04-03T18:03:02;0.20;;;0.20;;
2464;SDS011;1244;54.326;10.074;2023-04-03T18:05:28;0.20;;;0.20;;
2464;SDS011;1244;54.326;10.074;2023-04-03T18:07:55;0.20;;;0.20;;
2464;SDS011;1244;54.326;10.074;2023-04-03T18:10:22;0.20;;;0.20;;
2464;SDS011;1244;54.326;10.074;2023-04-03T18:12:47;0.20;;;0.20;;